createdAt,value
2023-02-19T00:00:23.784Z,9.71
2023-02-19T00:01:47.694Z,9.59
2023-02-19T00:02:52.654Z,9.57
2023-02-19T00:03:58.217Z,9.65
2023-02-19T00:05:01.073Z,9.64
2023-02-19T00:06:09.455Z,9.64
2023-02-19T00:07:12.336Z,9.82
2023-02-19T00:08:15.425Z,9.81
2023-02-19T00:09:19.825Z,9.70
2023-02-19T00:10:22.734Z,9.66
2023-02-19T00:11:31.853Z,9.55
2023-02-19T00:12:34.693Z,9.50
2023-02-19T00:13:42.625Z,9.62
2023-02-19T00:14:45.413Z,9.66
2023-02-19T00:15:48.277Z,9.57
2023-02-19T00:16:51.283Z,9.58
2023-02-19T00:17:54.013Z,9.52
2023-02-19T00:18:58.108Z,9.55
2023-02-19T00:20:01.177Z,9.55
2023-02-19T00:21:04.535Z,9.57
2023-02-19T00:22:07.344Z,9.59
2023-02-19T00:23:10.176Z,9.59
2023-02-19T00:24:14.356Z,9.56
2023-02-19T00:25:17.544Z,9.76
2023-02-19T00:26:20.941Z,9.76
2023-02-19T00:27:23.777Z,9.73
2023-02-19T00:28:27.693Z,9.71
2023-02-19T00:29:30.617Z,9.83
2023-02-19T00:30:33.741Z,9.88
2023-02-19T00:31:36.770Z,9.85
2023-02-19T00:32:39.812Z,9.72
2023-02-19T00:33:42.738Z,9.66
2023-02-19T00:34:45.662Z,9.70
2023-02-19T00:35:48.478Z,9.76
2023-02-19T00:36:51.469Z,9.62
2023-02-19T00:37:54.258Z,9.73
2023-02-19T00:38:57.561Z,9.62
2023-02-19T00:40:00.657Z,9.51
2023-02-19T00:41:19.371Z,9.47
2023-02-19T00:42:22.221Z,9.47
2023-02-19T00:43:24.963Z,9.64
2023-02-19T00:44:28.011Z,9.73
2023-02-19T00:45:30.903Z,9.69
2023-02-19T00:46:47.843Z,9.62
2023-02-19T00:47:50.835Z,9.63
2023-02-19T00:48:54.504Z,9.59
2023-02-19T00:49:57.311Z,9.72
2023-02-19T00:51:00.172Z,9.74
2023-02-19T00:52:02.873Z,9.90
2023-02-19T00:53:05.861Z,9.93
2023-02-19T00:54:08.582Z,9.79
2023-02-19T00:55:11.578Z,9.76
2023-02-19T00:56:14.759Z,9.78
2023-02-19T00:57:17.632Z,9.95
2023-02-19T00:58:20.515Z,9.85
2023-02-19T00:59:23.217Z,9.95
2023-02-19T01:00:26.343Z,9.99
2023-02-19T01:01:29.267Z,9.97
2023-02-19T01:02:32.548Z,9.89
2023-02-19T01:03:36.302Z,9.85
2023-02-19T01:04:39.367Z,9.74
2023-02-19T01:05:42.135Z,9.77
2023-02-19T01:06:45.096Z,9.88
2023-02-19T01:07:48.022Z,9.75
2023-02-19T01:08:51.138Z,9.74
2023-02-19T01:09:54.147Z,9.81
2023-02-19T01:10:57.375Z,9.71
2023-02-19T01:12:00.143Z,9.90
2023-02-19T01:13:02.924Z,9.97
2023-02-19T01:14:05.896Z,9.89
2023-02-19T01:15:09.227Z,9.74
2023-02-19T01:16:21.531Z,9.84
2023-02-19T01:17:25.181Z,9.83
2023-02-19T01:18:28.146Z,9.78
2023-02-19T01:19:30.978Z,9.83
2023-02-19T01:20:34.800Z,9.87
2023-02-19T01:21:37.670Z,9.85
2023-02-19T01:22:40.384Z,10.01
2023-02-19T01:23:44.430Z,10.09
2023-02-19T01:24:47.206Z,10.03
2023-02-19T01:25:50.127Z,10.09
2023-02-19T01:26:52.958Z,10.09
2023-02-19T01:27:55.737Z,9.96
2023-02-19T01:29:00.604Z,10.08
2023-02-19T01:30:03.977Z,10.01
2023-02-19T01:31:09.037Z,10.03
2023-02-19T01:32:13.005Z,10.07
2023-02-19T01:33:15.916Z,10.14
2023-02-19T01:34:18.734Z,10.12
2023-02-19T01:35:21.540Z,10.02
2023-02-19T01:36:24.835Z,10.07
2023-02-19T01:37:27.889Z,10.12
2023-02-19T01:38:31.140Z,10.08
2023-02-19T01:39:33.895Z,9.98
2023-02-19T01:40:36.695Z,9.92
2023-02-19T01:41:41.246Z,10.02
2023-02-19T01:42:44.508Z,10.01
2023-02-19T01:44:03.170Z,9.92
2023-02-19T01:45:34.726Z,9.78
2023-02-19T01:46:41.174Z,9.83
2023-02-19T01:47:44.242Z,9.76
2023-02-19T01:48:47.767Z,9.81
2023-02-19T01:49:57.418Z,9.83
2023-02-19T01:51:09.659Z,9.63
2023-02-19T01:52:22.331Z,9.65
2023-02-19T01:53:29.919Z,9.56
2023-02-19T01:54:40.689Z,9.49
2023-02-19T01:55:47.408Z,9.38
2023-02-19T01:56:51.568Z,9.23
2023-02-19T01:57:56.577Z,9.22
2023-02-19T01:59:00.706Z,9.16
2023-02-19T02:00:09.357Z,9.14
2023-02-19T02:01:13.117Z,9.16
2023-02-19T02:02:16.685Z,9.18
2023-02-19T02:03:21.000Z,9.19
2023-02-19T02:04:24.119Z,9.22
2023-02-19T02:05:49.064Z,9.31
2023-02-19T02:06:54.428Z,9.36
2023-02-19T02:08:16.399Z,9.35
2023-02-19T02:09:40.403Z,9.45
2023-02-19T02:10:44.228Z,9.57
2023-02-19T02:11:52.083Z,9.32
2023-02-19T02:12:58.014Z,9.45
2023-02-19T02:14:01.006Z,9.31
2023-02-19T02:15:04.260Z,9.38
2023-02-19T02:16:16.081Z,9.29
2023-02-19T02:17:24.858Z,9.20
2023-02-19T02:18:57.010Z,9.23
2023-02-19T02:20:14.827Z,9.19
2023-02-19T02:21:55.659Z,9.25
2023-02-19T02:23:37.377Z,9.10
2023-02-19T02:24:42.752Z,9.17
2023-02-19T02:25:48.091Z,9.09
2023-02-19T02:27:27.645Z,9.10
2023-02-19T02:28:47.937Z,9.21
2023-02-19T02:30:07.426Z,9.32
2023-02-19T02:31:18.059Z,9.44
2023-02-19T02:32:27.966Z,9.50
2023-02-19T02:34:09.290Z,9.55
2023-02-19T02:35:13.816Z,9.55
2023-02-19T02:36:25.571Z,9.39
2023-02-19T02:37:33.881Z,9.47
2023-02-19T02:38:40.919Z,9.59
2023-02-19T02:39:46.922Z,9.49
2023-02-19T02:40:50.468Z,9.45
2023-02-19T02:42:18.999Z,9.45
2023-02-19T02:43:22.095Z,9.44
2023-02-19T02:44:34.816Z,9.31
2023-02-19T02:45:39.959Z,9.45
2023-02-19T02:46:45.915Z,9.34
2023-02-19T02:47:57.142Z,9.41
2023-02-19T02:49:17.540Z,9.37
2023-02-19T02:50:27.839Z,9.44
2023-02-19T02:51:45.481Z,9.45
2023-02-19T02:53:11.597Z,9.63
2023-02-19T02:54:43.067Z,9.39
2023-02-19T02:55:49.931Z,9.38
2023-02-19T02:56:55.095Z,9.31
2023-02-19T02:57:59.343Z,9.18
2023-02-19T02:59:06.329Z,9.18
2023-02-19T03:00:10.025Z,9.30
2023-02-19T03:01:39.849Z,9.19
2023-02-19T03:02:44.297Z,9.09
2023-02-19T03:03:52.040Z,9.14
2023-02-19T03:05:32.129Z,8.98
2023-02-19T03:06:38.090Z,9.18
2023-02-19T03:07:54.958Z,9.17
2023-02-19T03:09:40.993Z,9.06
2023-02-19T03:10:58.587Z,9.10
2023-02-19T03:12:24.275Z,8.92
2023-02-19T03:13:53.203Z,8.87
2023-02-19T03:15:20.805Z,8.98
2023-02-19T03:16:47.696Z,8.88
2023-02-19T03:18:18.238Z,9.05
2023-02-19T03:19:25.224Z,9.00
2023-02-19T03:20:30.293Z,8.92
2023-02-19T03:21:38.511Z,8.91
2023-02-19T03:22:45.140Z,8.81
2023-02-19T03:24:08.256Z,8.84
2023-02-19T03:25:37.740Z,8.74
2023-02-19T03:26:44.303Z,8.68
2023-02-19T03:27:49.738Z,8.66
2023-02-19T03:29:13.181Z,8.64
2023-02-19T03:30:21.265Z,8.75
2023-02-19T03:31:28.057Z,8.74
2023-02-19T03:32:53.481Z,8.64
2023-02-19T03:34:00.129Z,8.61
2023-02-19T03:35:28.166Z,8.57
2023-02-19T03:36:38.512Z,8.55
2023-02-19T03:38:02.874Z,8.50
2023-02-19T03:39:09.331Z,8.49
2023-02-19T03:40:13.225Z,8.46
2023-02-19T03:41:36.316Z,8.44
2023-02-19T03:43:03.775Z,8.43
2023-02-19T03:44:17.671Z,8.42
2023-02-19T03:45:36.503Z,8.47
2023-02-19T03:46:55.463Z,8.46
2023-02-19T03:48:20.624Z,8.41
2023-02-19T03:49:49.469Z,8.34
2023-02-19T03:51:05.350Z,8.34
2023-02-19T03:52:10.974Z,8.26
2023-02-19T03:53:59.988Z,8.27
2023-02-19T03:55:18.103Z,8.35
2023-02-19T03:57:00.061Z,8.27
2023-02-19T03:58:28.669Z,8.23
2023-02-19T03:59:37.901Z,8.29
2023-02-19T04:01:14.082Z,8.24
2023-02-19T04:02:26.609Z,8.32
2023-02-19T04:03:35.620Z,8.37
2023-02-19T04:04:44.855Z,8.32
2023-02-19T04:05:55.499Z,8.27
2023-02-19T04:06:58.980Z,8.20
2023-02-19T04:08:11.498Z,8.25
2023-02-19T04:09:16.548Z,8.29
2023-02-19T04:10:20.780Z,8.27
2023-02-19T04:11:25.578Z,8.27
2023-02-19T04:12:29.900Z,8.25
2023-02-19T04:13:38.707Z,8.43
2023-02-19T04:14:47.750Z,8.38
2023-02-19T04:15:54.556Z,8.43
2023-02-19T04:17:03.428Z,8.49
2023-02-19T04:18:24.142Z,8.43
2023-02-19T04:19:29.217Z,8.38
2023-02-19T04:20:37.742Z,8.36
2023-02-19T04:21:42.354Z,8.37
2023-02-19T04:22:45.587Z,8.36
2023-02-19T04:23:49.184Z,8.33
2023-02-19T04:24:55.658Z,8.30
2023-02-19T04:26:01.623Z,8.31
2023-02-19T04:27:06.102Z,8.31
2023-02-19T04:28:10.991Z,8.28
2023-02-19T04:29:14.001Z,8.32
2023-02-19T04:30:18.073Z,8.29
2023-02-19T04:31:21.297Z,8.26
2023-02-19T04:32:24.480Z,8.43
2023-02-19T04:33:27.399Z,8.46
2023-02-19T04:34:30.387Z,8.52
2023-02-19T04:35:33.334Z,8.47
2023-02-19T04:36:36.401Z,8.33
2023-02-19T04:37:39.277Z,8.27
2023-02-19T04:38:42.094Z,8.25
2023-02-19T04:39:45.575Z,8.21
2023-02-19T04:40:49.184Z,8.15
2023-02-19T04:41:52.009Z,8.11
2023-02-19T04:42:54.786Z,8.04
2023-02-19T04:43:57.599Z,8.05
2023-02-19T04:45:00.359Z,8.17
2023-02-19T04:46:03.460Z,8.11
2023-02-19T04:47:06.654Z,8.05
2023-02-19T04:48:09.760Z,8.04
2023-02-19T04:49:12.753Z,8.08
2023-02-19T04:50:15.654Z,8.17
2023-02-19T04:51:18.659Z,8.05
2023-02-19T04:52:21.507Z,8.06
2023-02-19T04:53:24.463Z,8.26
2023-02-19T04:54:27.395Z,8.23
2023-02-19T04:55:30.197Z,8.29
2023-02-19T04:56:33.363Z,8.42
2023-02-19T04:57:36.367Z,8.51
2023-02-19T04:58:40.803Z,8.41
2023-02-19T04:59:43.568Z,8.42
2023-02-19T05:00:46.674Z,8.53
2023-02-19T05:01:49.790Z,8.43
2023-02-19T05:02:52.736Z,8.47
2023-02-19T05:03:55.616Z,8.57
2023-02-19T05:04:58.372Z,8.49
2023-02-19T05:06:06.576Z,8.39
2023-02-19T05:07:09.423Z,8.36
2023-02-19T05:08:12.382Z,8.19
2023-02-19T05:09:15.487Z,8.29
2023-02-19T05:10:18.677Z,8.26
2023-02-19T05:11:24.055Z,8.24
2023-02-19T05:12:27.241Z,8.26
2023-02-19T05:13:30.741Z,8.41
2023-02-19T05:14:33.559Z,8.43
2023-02-19T05:15:37.874Z,8.37
2023-02-19T05:16:40.660Z,8.51
2023-02-19T05:17:43.552Z,8.38
2023-02-19T05:18:47.368Z,8.49
2023-02-19T05:19:50.410Z,8.56
2023-02-19T05:20:53.290Z,8.46
2023-02-19T05:21:56.125Z,8.46
2023-02-19T05:22:58.935Z,8.53
2023-02-19T05:24:01.735Z,8.58
2023-02-19T05:25:05.042Z,8.56
2023-02-19T05:26:21.206Z,8.48
2023-02-19T05:27:24.045Z,8.58
2023-02-19T05:28:29.239Z,8.54
2023-02-19T05:29:32.697Z,8.58
2023-02-19T05:30:35.898Z,8.45
2023-02-19T05:31:39.027Z,8.29
2023-02-19T05:32:41.894Z,8.25
2023-02-19T05:33:45.973Z,8.12
2023-02-19T05:34:48.952Z,8.04
2023-02-19T05:35:55.124Z,7.95
2023-02-19T05:36:58.369Z,7.90
2023-02-19T05:38:01.188Z,7.95
2023-02-19T05:39:06.369Z,7.98
2023-02-19T05:40:09.570Z,7.90
2023-02-19T05:41:18.820Z,7.92
2023-02-19T05:42:21.767Z,7.89
2023-02-19T05:43:24.531Z,7.88
2023-02-19T05:44:27.500Z,7.91
2023-02-19T05:45:30.908Z,7.89
2023-02-19T05:46:33.990Z,7.83
2023-02-19T05:47:36.847Z,7.82
2023-02-19T05:48:39.926Z,7.82
2023-02-19T05:49:42.695Z,7.76
2023-02-19T05:50:45.547Z,7.74
2023-02-19T05:51:51.468Z,7.71
2023-02-19T05:52:54.371Z,7.70
2023-02-19T05:53:57.503Z,7.70
2023-02-19T05:55:00.609Z,7.71
2023-02-19T05:56:03.845Z,7.79
2023-02-19T05:57:07.027Z,7.70
2023-02-19T05:58:09.763Z,7.77
2023-02-19T05:59:15.132Z,7.86
2023-02-19T06:00:19.678Z,7.95
2023-02-19T06:01:25.263Z,8.01
2023-02-19T06:02:28.228Z,7.91
2023-02-19T06:03:31.132Z,7.88
2023-02-19T06:04:34.069Z,7.94
2023-02-19T06:05:37.812Z,8.04
2023-02-19T06:06:41.549Z,8.02
2023-02-19T06:07:44.781Z,7.92
2023-02-19T06:08:51.097Z,7.98
2023-02-19T06:09:54.077Z,7.96
2023-02-19T06:10:56.830Z,8.00
2023-02-19T06:11:59.589Z,8.18
2023-02-19T06:13:02.310Z,8.09
2023-02-19T06:14:05.521Z,8.23
2023-02-19T06:15:08.532Z,8.11
2023-02-19T06:16:11.756Z,8.28
2023-02-19T06:17:14.868Z,8.08
2023-02-19T06:18:17.753Z,8.17
2023-02-19T06:19:21.194Z,8.15
2023-02-19T06:20:26.025Z,8.36
2023-02-19T06:21:29.133Z,8.29
2023-02-19T06:22:31.864Z,8.20
2023-02-19T06:23:35.140Z,8.18
2023-02-19T06:24:37.905Z,8.34
2023-02-19T06:25:40.640Z,8.35
2023-02-19T06:26:43.681Z,8.39
2023-02-19T06:27:46.856Z,8.45
2023-02-19T06:28:51.135Z,8.41
2023-02-19T06:29:54.223Z,8.46
2023-02-19T06:30:59.339Z,8.48
2023-02-19T06:32:02.440Z,8.35
2023-02-19T06:33:05.230Z,8.41
2023-02-19T06:34:07.958Z,8.39
2023-02-19T06:35:10.713Z,8.30
2023-02-19T06:36:16.068Z,8.32
2023-02-19T06:37:18.966Z,8.20
2023-02-19T06:38:22.538Z,8.23
2023-02-19T06:39:25.620Z,8.19
2023-02-19T06:40:28.343Z,8.29
2023-02-19T06:41:31.122Z,8.31
2023-02-19T06:42:33.993Z,8.24
2023-02-19T06:43:36.811Z,8.40
2023-02-19T06:44:39.615Z,8.36
2023-02-19T06:45:42.598Z,8.43
2023-02-19T06:46:45.668Z,8.38
2023-02-19T06:47:48.963Z,8.39
2023-02-19T06:48:51.864Z,8.55
2023-02-19T06:49:54.733Z,8.40
2023-02-19T06:50:57.560Z,8.50
2023-02-19T06:52:00.844Z,8.50
2023-02-19T06:53:03.804Z,8.36
2023-02-19T06:54:06.622Z,8.33
2023-02-19T06:55:09.709Z,8.23
2023-02-19T06:56:31.870Z,8.32
2023-02-19T06:57:34.770Z,8.23
2023-02-19T06:58:37.492Z,8.26
2023-02-19T06:59:40.183Z,8.30
2023-02-19T07:00:42.963Z,8.22
2023-02-19T07:01:46.653Z,8.28
2023-02-19T07:02:50.123Z,8.38
2023-02-19T07:03:53.791Z,8.48
2023-02-19T07:04:56.917Z,8.45
2023-02-19T07:06:01.003Z,8.50
2023-02-19T07:07:04.861Z,8.41
2023-02-19T07:08:07.768Z,8.48
2023-02-19T07:09:14.793Z,8.43
2023-02-19T07:10:18.234Z,8.34
2023-02-19T07:11:20.949Z,8.37
2023-02-19T07:12:24.111Z,8.38
2023-02-19T07:13:27.971Z,8.32
2023-02-19T07:14:30.992Z,8.38
2023-02-19T07:15:33.795Z,8.31
2023-02-19T07:16:37.025Z,8.32
2023-02-19T07:17:39.889Z,8.48
2023-02-19T07:18:43.162Z,8.43
2023-02-19T07:19:45.945Z,8.45
2023-02-19T07:20:48.714Z,8.43
2023-02-19T07:21:51.710Z,8.36
2023-02-19T07:22:55.053Z,8.32
2023-02-19T07:23:58.620Z,8.45
2023-02-19T07:25:01.281Z,8.53
2023-02-19T07:26:05.466Z,8.50
2023-02-19T07:27:08.447Z,8.41
2023-02-19T07:28:11.372Z,8.38
2023-02-19T07:29:14.206Z,8.40
2023-02-19T07:30:17.338Z,8.41
2023-02-19T07:31:22.987Z,8.58
2023-02-19T07:32:25.768Z,8.57
2023-02-19T07:33:28.881Z,8.59
2023-02-19T07:34:31.673Z,8.65
2023-02-19T07:35:34.463Z,8.60
2023-02-19T07:36:37.416Z,8.77
2023-02-19T07:37:41.493Z,8.78
2023-02-19T07:38:45.271Z,8.80
2023-02-19T07:39:48.227Z,8.92
2023-02-19T07:41:00.228Z,8.95
2023-02-19T07:42:03.248Z,8.80
2023-02-19T07:43:06.000Z,8.82
2023-02-19T07:44:08.882Z,8.83
2023-02-19T07:45:11.657Z,8.96
2023-02-19T07:46:14.649Z,9.04
2023-02-19T07:47:18.089Z,9.01
2023-02-19T07:48:22.608Z,9.06
2023-02-19T07:49:25.377Z,9.09
2023-02-19T07:50:28.550Z,9.18
2023-02-19T07:51:31.866Z,9.10
2023-02-19T07:52:34.673Z,9.18
2023-02-19T07:53:37.780Z,9.22
2023-02-19T07:54:40.642Z,9.29
2023-02-19T07:55:43.493Z,9.31
2023-02-19T07:56:46.603Z,9.19
2023-02-19T07:57:49.366Z,9.36
2023-02-19T07:58:52.239Z,9.35
2023-02-19T07:59:55.061Z,9.29
2023-02-19T08:00:58.162Z,9.30
2023-02-19T08:02:19.262Z,9.29
2023-02-19T08:03:22.241Z,9.32
2023-02-19T08:04:24.991Z,9.32
2023-02-19T08:05:33.652Z,9.26
2023-02-19T08:06:36.772Z,9.36
2023-02-19T08:07:39.722Z,9.29
2023-02-19T08:08:43.227Z,9.31
2023-02-19T08:10:06.016Z,9.17
2023-02-19T08:11:28.744Z,9.14
2023-02-19T08:12:57.401Z,9.06
2023-02-19T08:14:00.050Z,9.17
2023-02-19T08:15:02.805Z,9.02
2023-02-19T08:16:16.922Z,8.96
2023-02-19T08:17:20.170Z,8.92
2023-02-19T08:18:27.795Z,8.71
2023-02-19T08:19:30.628Z,8.72
2023-02-19T08:20:33.701Z,8.82
2023-02-19T08:21:36.556Z,8.84
2023-02-19T08:22:39.384Z,8.81
2023-02-19T08:23:42.385Z,8.78
2023-02-19T08:24:45.634Z,8.65
2023-02-19T08:25:49.721Z,8.62
2023-02-19T08:26:52.598Z,8.68
2023-02-19T08:27:56.127Z,8.55
2023-02-19T08:28:59.275Z,8.58
2023-02-19T08:30:02.334Z,8.45
2023-02-19T08:31:07.760Z,8.50
2023-02-19T08:32:10.925Z,8.51
2023-02-19T08:33:16.830Z,8.47
2023-02-19T08:34:19.627Z,8.46
2023-02-19T08:35:22.677Z,8.49
2023-02-19T08:36:26.432Z,8.58
2023-02-19T08:37:32.448Z,8.58
2023-02-19T08:38:36.674Z,8.55
2023-02-19T08:39:39.603Z,8.62
2023-02-19T08:40:43.061Z,8.62
2023-02-19T08:41:45.973Z,8.62
2023-02-19T08:42:48.929Z,8.63
2023-02-19T08:43:51.603Z,8.55
2023-02-19T08:44:55.046Z,8.53
2023-02-19T08:45:57.826Z,8.57
2023-02-19T08:47:00.922Z,8.55
2023-02-19T08:48:04.528Z,8.58
2023-02-19T08:49:07.454Z,8.56
2023-02-19T08:50:11.507Z,8.56
2023-02-19T08:51:14.697Z,8.57
2023-02-19T08:52:17.710Z,8.57
2023-02-19T08:53:20.620Z,8.57
2023-02-19T08:54:23.423Z,8.61
2023-02-19T08:55:26.487Z,8.59
2023-02-19T08:56:29.660Z,8.63
2023-02-19T08:57:35.609Z,8.67
2023-02-19T08:58:39.304Z,8.55
2023-02-19T08:59:42.145Z,8.59
2023-02-19T09:00:45.506Z,8.60
2023-02-19T09:01:48.449Z,8.65
2023-02-19T09:02:51.460Z,8.57
2023-02-19T09:03:54.238Z,8.64
2023-02-19T09:04:57.181Z,8.57
2023-02-19T09:05:59.940Z,8.53
2023-02-19T09:07:02.944Z,8.58
2023-02-19T09:08:05.817Z,8.59
2023-02-19T09:09:09.047Z,8.63
2023-02-19T09:10:13.884Z,8.61
2023-02-19T09:11:17.417Z,8.70
2023-02-19T09:12:20.601Z,8.59
2023-02-19T09:13:23.564Z,8.58
2023-02-19T09:14:26.531Z,8.52
2023-02-19T09:15:29.910Z,8.50
2023-02-19T09:16:32.923Z,8.56
2023-02-19T09:17:36.023Z,8.58
2023-02-19T09:18:39.036Z,8.44
2023-02-19T09:19:42.140Z,8.52
2023-02-19T09:20:45.109Z,8.44
2023-02-19T09:21:48.176Z,8.48
2023-02-19T09:22:56.469Z,8.48
2023-02-19T09:23:59.498Z,8.45
2023-02-19T09:25:03.013Z,8.51
2023-02-19T09:26:08.936Z,8.52
2023-02-19T09:27:20.070Z,8.50
2023-02-19T09:28:28.684Z,8.50
2023-02-19T09:29:31.736Z,8.48
2023-02-19T09:30:34.729Z,8.41
2023-02-19T09:31:38.324Z,8.39
2023-02-19T09:32:41.279Z,8.38
2023-02-19T09:33:48.773Z,8.41
2023-02-19T09:34:51.932Z,8.51
2023-02-19T09:35:54.978Z,8.54
2023-02-19T09:36:57.892Z,8.38
2023-02-19T09:38:02.410Z,8.32
2023-02-19T09:39:08.309Z,8.43
2023-02-19T09:40:12.261Z,8.44
2023-02-19T09:41:28.267Z,8.52
2023-02-19T09:42:33.144Z,8.62
2023-02-19T09:43:36.530Z,8.68
2023-02-19T09:44:43.699Z,8.76
2023-02-19T09:45:47.662Z,8.67
2023-02-19T09:46:53.402Z,8.58
2023-02-19T09:47:58.513Z,8.66
2023-02-19T09:49:15.168Z,8.65
2023-02-19T09:50:22.777Z,8.56
2023-02-19T09:51:29.357Z,8.63
2023-02-19T09:52:54.501Z,8.66
2023-02-19T09:53:58.524Z,8.73
2023-02-19T09:55:14.082Z,8.79
2023-02-19T09:56:17.922Z,8.73
2023-02-19T09:57:24.151Z,8.64
2023-02-19T09:58:48.801Z,8.77
2023-02-19T10:00:06.198Z,8.89
2023-02-19T10:01:12.655Z,8.79
2023-02-19T10:02:19.093Z,8.86
2023-02-19T10:03:39.453Z,8.99
2023-02-19T10:04:44.529Z,8.97
2023-02-19T10:05:48.424Z,9.23
2023-02-19T10:06:53.249Z,9.33
2023-02-19T10:07:59.902Z,9.37
2023-02-19T10:09:26.063Z,9.55
2023-02-19T10:10:35.499Z,9.73
2023-02-19T10:11:39.146Z,9.76
2023-02-19T10:12:52.256Z,10.04
2023-02-19T10:14:28.732Z,9.92
2023-02-19T10:15:57.600Z,10.25
2023-02-19T10:17:05.314Z,10.39
2023-02-19T10:18:11.179Z,10.47
2023-02-19T10:19:16.604Z,10.66
2023-02-19T10:20:27.147Z,10.79
2023-02-19T10:21:30.890Z,10.82
2023-02-19T10:22:38.069Z,10.93
2023-02-19T10:23:42.126Z,11.04
2023-02-19T10:24:49.725Z,11.43
2023-02-19T10:25:58.094Z,11.68
2023-02-19T10:27:01.285Z,11.81
2023-02-19T10:28:06.721Z,11.97
2023-02-19T10:29:11.303Z,11.95
2023-02-19T10:30:22.000Z,11.75
2023-02-19T10:31:26.014Z,11.61
2023-02-19T10:32:30.021Z,11.69
2023-02-19T10:33:58.544Z,11.87
2023-02-19T10:35:10.530Z,11.75
2023-02-19T10:36:33.717Z,11.81
2023-02-19T10:37:45.151Z,11.91
2023-02-19T10:38:48.340Z,11.96
2023-02-19T10:39:51.726Z,12.01
2023-02-19T10:41:02.546Z,12.19
2023-02-19T10:42:06.816Z,12.39
2023-02-19T10:43:22.900Z,12.30
2023-02-19T10:44:28.640Z,12.29
2023-02-19T10:45:48.802Z,12.71
2023-02-19T10:46:57.434Z,13.03
2023-02-19T10:48:03.445Z,12.76
2023-02-19T10:49:20.719Z,12.80
2023-02-19T10:50:56.336Z,12.88
2023-02-19T10:52:22.749Z,12.68
2023-02-19T10:53:49.400Z,13.08
2023-02-19T10:54:58.589Z,13.51
2023-02-19T10:56:12.660Z,13.61
2023-02-19T10:57:26.301Z,13.94
2023-02-19T10:58:29.546Z,14.27
2023-02-19T10:59:32.536Z,14.67
2023-02-19T11:00:36.367Z,14.98
2023-02-19T11:01:58.844Z,15.08
2023-02-19T11:03:24.234Z,15.40
2023-02-19T11:04:30.215Z,15.75
2023-02-19T11:05:34.008Z,15.72
2023-02-19T11:06:37.592Z,15.53
2023-02-19T11:07:50.730Z,15.01
2023-02-19T11:08:59.945Z,14.30
2023-02-19T11:10:06.069Z,14.29
2023-02-19T11:11:10.957Z,13.96
2023-02-19T11:12:23.584Z,13.77
2023-02-19T11:13:33.155Z,13.75
2023-02-19T11:14:36.850Z,13.30
2023-02-19T11:15:41.975Z,13.08
2023-02-19T11:16:52.278Z,13.05
2023-02-19T11:18:10.809Z,13.09
2023-02-19T11:19:28.934Z,12.75
2023-02-19T11:20:33.096Z,12.41
2023-02-19T11:21:36.594Z,12.22
2023-02-19T11:22:42.325Z,12.33
2023-02-19T11:23:47.402Z,12.11
2023-02-19T11:24:55.905Z,12.13
2023-02-19T11:26:05.039Z,11.98
2023-02-19T11:27:18.551Z,11.92
2023-02-19T11:28:39.267Z,12.12
2023-02-19T11:29:43.557Z,12.04
2023-02-19T11:30:48.060Z,12.02
2023-02-19T11:31:51.987Z,12.00
2023-02-19T11:32:55.250Z,12.12
2023-02-19T11:34:21.342Z,12.09
2023-02-19T11:35:25.457Z,11.92
2023-02-19T11:36:37.121Z,12.37
2023-02-19T11:38:00.756Z,12.83
2023-02-19T11:39:19.018Z,12.65
2023-02-19T11:40:31.043Z,12.72
2023-02-19T11:41:34.966Z,13.21
2023-02-19T11:42:53.739Z,13.75
2023-02-19T11:44:21.884Z,14.10
2023-02-19T11:45:36.356Z,14.65
2023-02-19T11:47:02.178Z,15.06
2023-02-19T11:48:24.391Z,15.43
2023-02-19T11:50:05.824Z,15.86
2023-02-19T11:51:22.972Z,15.85
2023-02-19T11:52:55.155Z,15.67
2023-02-19T11:54:09.440Z,15.43
2023-02-19T11:55:42.257Z,15.19
2023-02-19T11:56:55.826Z,15.39
2023-02-19T11:58:14.980Z,15.37
2023-02-19T11:59:26.232Z,15.63
2023-02-19T12:00:45.593Z,15.64
2023-02-19T12:02:18.464Z,15.46
2023-02-19T12:03:44.092Z,15.61
2023-02-19T12:05:01.263Z,15.72
2023-02-19T12:06:40.466Z,15.39
2023-02-19T12:08:18.412Z,15.41
2023-02-19T12:09:35.826Z,15.22
2023-02-19T12:10:59.719Z,15.36
2023-02-19T12:12:48.864Z,15.56
2023-02-19T12:14:13.380Z,15.81
2023-02-19T12:15:34.189Z,15.84
2023-02-19T12:17:17.930Z,16.02
2023-02-19T12:18:42.798Z,15.82
2023-02-19T12:20:16.876Z,15.85
2023-02-19T12:21:55.016Z,15.66
2023-02-19T12:23:19.165Z,15.38
2023-02-19T12:24:40.737Z,15.68
2023-02-19T12:25:50.209Z,15.50
2023-02-19T12:27:17.296Z,15.53
2023-02-19T12:28:46.252Z,14.74
2023-02-19T12:30:02.431Z,14.29
2023-02-19T12:31:28.945Z,14.13
2023-02-19T12:33:00.046Z,13.98
2023-02-19T12:34:34.500Z,13.73
2023-02-19T12:35:50.982Z,14.01
2023-02-19T12:37:01.177Z,14.42
2023-02-19T12:38:33.697Z,14.44
2023-02-19T12:40:24.847Z,14.47
2023-02-19T12:41:46.791Z,14.92
2023-02-19T12:43:12.016Z,14.75
2023-02-19T12:44:18.418Z,14.50
2023-02-19T12:45:37.305Z,15.08
2023-02-19T12:46:46.425Z,14.92
2023-02-19T12:48:11.347Z,14.42
2023-02-19T12:49:47.289Z,14.18
2023-02-19T12:51:17.541Z,14.37
2023-02-19T12:52:28.027Z,14.00
2023-02-19T12:53:43.910Z,13.99
2023-02-19T12:54:52.539Z,14.15
2023-02-19T12:55:59.830Z,14.44
2023-02-19T12:57:06.408Z,15.12
2023-02-19T12:58:45.488Z,15.06
2023-02-19T12:59:53.277Z,14.77
2023-02-19T13:01:01.063Z,14.94
2023-02-19T13:02:24.955Z,15.01
2023-02-19T13:03:40.908Z,14.73
2023-02-19T13:04:57.663Z,14.32
2023-02-19T13:06:22.641Z,13.96
2023-02-19T13:07:49.799Z,13.58
2023-02-19T13:09:06.677Z,13.47
2023-02-19T13:10:27.714Z,13.49
2023-02-19T13:11:36.880Z,13.41
2023-02-19T13:12:46.375Z,13.08
2023-02-19T13:13:57.875Z,13.05
2023-02-19T13:15:06.531Z,13.16
2023-02-19T13:16:18.488Z,13.18
2023-02-19T13:17:40.646Z,13.11
2023-02-19T13:18:49.141Z,13.28
2023-02-19T13:20:02.267Z,13.34
2023-02-19T13:21:06.451Z,13.10
2023-02-19T13:22:43.986Z,13.21
2023-02-19T13:23:59.708Z,13.66
2023-02-19T13:25:04.365Z,13.72
2023-02-19T13:26:24.595Z,13.54
2023-02-19T13:27:31.191Z,13.82
2023-02-19T13:29:00.635Z,14.11
2023-02-19T13:30:14.938Z,13.93
2023-02-19T13:31:57.587Z,14.13
2023-02-19T13:33:26.626Z,14.55
2023-02-19T13:34:48.670Z,14.32
2023-02-19T13:36:06.955Z,14.17
2023-02-19T13:37:12.480Z,13.74
2023-02-19T13:38:16.969Z,13.60
2023-02-19T13:39:22.990Z,13.53
2023-02-19T13:40:35.302Z,13.15
2023-02-19T13:41:52.349Z,13.01
2023-02-19T13:42:59.036Z,13.08
2023-02-19T13:44:06.857Z,12.93
2023-02-19T13:45:29.499Z,12.83
2023-02-19T13:46:40.592Z,12.74
2023-02-19T13:47:55.700Z,12.72
2023-02-19T13:49:24.136Z,12.61
2023-02-19T13:50:35.611Z,12.50
2023-02-19T13:51:46.198Z,12.59
2023-02-19T13:52:53.416Z,12.50
2023-02-19T13:53:57.155Z,12.33
2023-02-19T13:55:41.546Z,12.19
2023-02-19T13:56:45.410Z,12.03
2023-02-19T13:57:48.742Z,11.97
2023-02-19T13:59:00.388Z,11.93
2023-02-19T14:00:44.141Z,11.53
2023-02-19T14:01:57.135Z,10.70
2023-02-19T14:03:30.364Z,10.19
2023-02-19T14:05:11.077Z,9.91
2023-02-19T14:06:16.344Z,9.68
2023-02-19T14:07:39.748Z,9.21
2023-02-19T14:08:59.328Z,9.35
2023-02-19T14:10:05.718Z,9.01
2023-02-19T14:11:15.565Z,9.02
2023-02-19T14:12:22.774Z,9.03
2023-02-19T14:13:54.010Z,9.11
2023-02-19T14:14:58.610Z,9.03
2023-02-19T14:16:02.932Z,9.11
2023-02-19T14:17:10.850Z,9.27
2023-02-19T14:18:47.224Z,9.15
2023-02-19T14:19:54.030Z,9.17
2023-02-19T14:21:16.329Z,9.10
2023-02-19T14:22:46.806Z,9.16
2023-02-19T14:23:57.690Z,9.00
2023-02-19T14:25:01.906Z,8.94
2023-02-19T14:26:09.079Z,9.05
2023-02-19T14:27:13.644Z,9.16
2023-02-19T14:28:21.566Z,9.19
2023-02-19T14:29:25.559Z,9.18
2023-02-19T14:30:32.186Z,9.11
2023-02-19T14:31:39.649Z,9.15
2023-02-19T14:32:47.403Z,9.29
2023-02-19T14:33:59.188Z,9.22
2023-02-19T14:35:02.920Z,9.21
2023-02-19T14:36:31.764Z,9.34
2023-02-19T14:37:37.892Z,9.31
2023-02-19T14:38:55.736Z,9.25
2023-02-19T14:39:59.917Z,9.11
2023-02-19T14:41:05.499Z,9.18
2023-02-19T14:42:34.084Z,9.24
2023-02-19T14:43:39.561Z,9.18
2023-02-19T14:44:53.702Z,9.14
2023-02-19T14:46:02.913Z,9.09
2023-02-19T14:47:15.130Z,8.87
2023-02-19T14:48:34.184Z,9.00
2023-02-19T14:50:01.988Z,9.03
2023-02-19T14:51:17.478Z,9.04
2023-02-19T14:52:25.319Z,9.03
2023-02-19T14:53:32.206Z,8.96
2023-02-19T14:54:42.777Z,9.07
2023-02-19T14:55:50.130Z,9.10
2023-02-19T14:56:55.699Z,9.21
2023-02-19T14:58:05.457Z,9.28
2023-02-19T14:59:13.476Z,9.25
2023-02-19T15:00:23.442Z,9.43
2023-02-19T15:01:28.945Z,9.44
2023-02-19T15:02:34.572Z,9.25
2023-02-19T15:03:39.368Z,9.24
2023-02-19T15:04:44.365Z,9.29
2023-02-19T15:05:49.918Z,9.14
2023-02-19T15:06:57.589Z,8.94
2023-02-19T15:08:23.377Z,8.85
2023-02-19T15:09:35.506Z,8.88
2023-02-19T15:10:44.159Z,8.96
2023-02-19T15:11:50.096Z,8.80
2023-02-19T15:13:06.347Z,8.78
2023-02-19T15:14:21.268Z,8.70